Time;durP1;ratioP1;P1;durP2;ratioP2;P2;SDS_P1;SDS_P2;PMS_P1;PMS_P2;Temp;Humidity;BMP_temperature;BMP_pressure;BME280_temperature;BME280_humidity;BME280_pressure;Samples;Min_cycle;Max_cycle;Signal;HPM_P1;HPM_P2
2022/12/13 00:03:29;;;;;;;;;;;15.90;34.80;;;;;;8363791;28;19983;-43
2022/12/13 00:07:30;;;;;;;;;;;16.00;34.80;;;;;;8363072;28;20374;-42
2022/12/13 00:11:30;;;;;;;;;;;15.90;34.80;;;;;;8363124;28;19927;-43
2022/12/13 00:15:31;;;;;;;;;;;15.90;34.70;;;;;;8363789;28;19917;-44
2022/12/13 00:19:31;;;;;;;;;;;15.90;34.80;;;;;;8362894;28;19925;-43
2022/12/13 00:23:32;;;;;;;;;;;15.90;34.80;;;;;;8363128;28;19967;-43
2022/12/13 00:27:32;;;;;;;;;;;15.90;34.80;;;;;;8363291;28;20011;-43
2022/12/13 00:31:33;;;;;;;;;;;15.90;34.70;;;;;;8362520;28;20362;-43
2022/12/13 00:35:39;;;;;;;;;;;15.90;34.70;;;;;;8363208;28;19917;-43
2022/12/13 00:39:39;;;;;;;;;;;15.90;34.70;;;;;;8362931;28;19917;-43
2022/12/13 00:43:39;;;;;;;;;;;15.90;34.70;;;;;;8362325;28;20423;-43
2022/12/13 00:47:40;;;;;;;;;;;15.90;34.70;;;;;;8363008;28;20301;-43
2022/12/13 00:51:40;;;;;;;;;;;15.90;34.70;;;;;;8362576;28;19921;-44
2022/12/13 00:55:41;;;;;;;;;;;15.90;34.70;;;;;;8362353;28;19919;-43
2022/12/13 00:59:41;;;;;;;;;;;15.90;34.70;;;;;;8363001;28;19947;-44
2022/12/13 01:03:42;;;;;;;;;;;15.90;34.60;;;;;;8368583;28;19917;-44
2022/12/13 01:07:43;;;;;;;;;;;15.90;34.70;;;;;;8368739;28;19999;-44
2022/12/13 01:11:44;;;;;;;;;;;15.90;34.70;;;;;;8369134;28;19967;-44
2022/12/13 01:15:46;;;;;;;;;;;15.90;34.60;;;;;;8369173;28;19920;-43
2022/12/13 01:19:46;;;;;;;;;;;15.90;34.60;;;;;;8368772;28;19920;-44
2022/12/13 01:23:46;;;;;;;;;;;15.90;34.60;;;;;;8368570;28;20472;-45
2022/12/13 01:27:47;;;;;;;;;;;15.90;34.70;;;;;;8368441;28;19924;-44
2022/12/13 01:31:48;;;;;;;;;;;15.90;34.60;;;;;;8367819;28;19921;-43
2022/12/13 01:35:48;;;;;;;;;;;15.90;34.60;;;;;;8368410;28;19975;-44
2022/12/13 01:39:49;;;;;;;;;;;15.90;34.60;;;;;;8368342;28;20358;-44
2022/12/13 01:43:51;;;;;;;;;;;15.90;34.60;;;;;;8367575;28;19916;-43
2022/12/13 01:48:00;;;;;;;;;;;15.90;34.60;;;;;;8367892;28;20000;-43
2022/12/13 01:52:02;;;;;;;;;;;15.90;34.50;;;;;;8366041;28;19978;-43
2022/12/13 01:56:05;;;;;;;;;;;15.90;34.50;;;;;;8368149;28;20000;-44
2022/12/13 02:00:06;;;;;;;;;;;15.90;34.50;;;;;;8367754;28;19916;-44
2022/12/13 02:04:07;;;;;;;;;;;15.90;34.50;;;;;;8367175;28;20049;-43
2022/12/13 02:08:09;;;;;;;;;;;15.80;34.40;;;;;;8364198;28;19920;-44
2022/12/13 02:12:10;;;;;;;;;;;15.80;34.40;;;;;;8335945;28;19963;-43
2022/12/13 02:16:18;;;;;;;;;;;15.80;34.30;;;;;;8366848;28;19970;-43
2022/12/13 02:20:41;;;;;;;;;;;15.90;34.40;;;;;;8366797;28;19917;-43
2022/12/13 02:24:51;;;;;;;;;;;15.80;34.40;;;;;;8361100;28;19917;-43
2022/12/13 02:29:05;;;;;;;;;;;15.80;34.40;;;;;;8366617;28;20392;-43
2022/12/13 02:33:11;;;;;;;;;;;15.80;34.30;;;;;;8366483;28;19932;-43
2022/12/13 02:37:19;;;;;;;;;;;15.80;34.30;;;;;;8366003;28;19917;-44
2022/12/13 02:41:38;;;;;;;;;;;15.80;34.40;;;;;;8366393;28;20324;-43
2022/12/13 02:45:49;;;;;;;;;;;15.80;34.30;;;;;;8365990;28;19978;-43
2022/12/13 02:49:52;;;;;;;;;;;15.80;34.30;;;;;;8365575;28;19924;-43
2022/12/13 02:53:53;;;;;;;;;;;15.80;34.30;;;;;;8365798;28;19978;-43
2022/12/13 02:57:53;;;;;;;;;;;15.80;34.30;;;;;;8365268;28;20365;-44
2022/12/13 03:02:09;;;;;;;;;;;15.80;34.30;;;;;;8365719;28;20386;-43
2022/12/13 03:06:31;;;;;;;;;;;15.80;34.30;;;;;;8365733;28;19917;-44
2022/12/13 03:10:35;;;;;;;;;;;15.80;34.30;;;;;;8364911;28;19921;-44
2022/12/13 03:14:38;;;;;;;;;;;15.80;34.30;;;;;;8365153;28;20518;-44
2022/12/13 03:18:39;;;;;;;;;;;15.80;34.30;;;;;;8364985;28;20351;-43
2022/12/13 03:22:39;;;;;;;;;;;15.80;34.30;;;;;;8364390;28;19923;-43
2022/12/13 03:26:40;;;;;;;;;;;15.80;34.30;;;;;;8364758;28;19995;-43
2022/12/13 03:30:40;;;;;;;;;;;15.80;34.20;;;;;;8364705;28;19923;-43
2022/12/13 03:34:41;;;;;;;;;;;15.80;34.30;;;;;;8363929;28;19956;-43
2022/12/13 03:38:41;;;;;;;;;;;15.80;34.20;;;;;;8364399;28;19920;-43
2022/12/13 03:42:42;;;;;;;;;;;15.80;34.20;;;;;;8364275;28;20373;-43
2022/12/13 03:46:42;;;;;;;;;;;15.80;34.20;;;;;;8363882;28;19943;-43
2022/12/13 03:50:42;;;;;;;;;;;15.80;34.20;;;;;;8364069;28;19916;-44
2022/12/13 03:54:43;;;;;;;;;;;15.80;34.20;;;;;;8364027;28;19927;-43
2022/12/13 03:58:43;;;;;;;;;;;15.80;34.20;;;;;;8363390;28;19917;-43
2022/12/13 04:02:44;;;;;;;;;;;15.80;34.20;;;;;;8363652;28;19920;-43
2022/12/13 04:06:44;;;;;;;;;;;15.80;34.30;;;;;;8363968;28;19916;-43
2022/12/13 04:10:45;;;;;;;;;;;15.70;34.20;;;;;;8363235;28;19928;-43
2022/12/13 04:14:45;;;;;;;;;;;15.70;34.20;;;;;;8363595;28;19931;-44
2022/12/13 04:18:46;;;;;;;;;;;15.80;34.20;;;;;;8363399;28;19917;-43
2022/12/13 04:22:46;;;;;;;;;;;15.80;34.20;;;;;;8362800;28;19912;-44
2022/12/13 04:26:46;;;;;;;;;;;15.80;34.20;;;;;;8363369;28;19920;-43
2022/12/13 04:30:47;;;;;;;;;;;15.90;34.20;;;;;;8363148;28;19921;-43
2022/12/13 04:34:47;;;;;;;;;;;15.80;34.20;;;;;;8362342;28;20274;-43
2022/12/13 04:38:48;;;;;;;;;;;15.90;34.70;;;;;;8362616;28;19925;-43
2022/12/13 04:42:49;;;;;;;;;;;15.90;34.00;;;;;;8363191;28;20263;-44
2022/12/13 04:46:49;;;;;;;;;;;15.90;34.10;;;;;;8362651;28;20425;-44
2022/12/13 04:50:49;;;;;;;;;;;16.00;34.10;;;;;;8363094;28;20004;-43
2022/12/13 04:54:50;;;;;;;;;;;15.90;34.00;;;;;;8362644;28;20370;-44
2022/12/13 05:03:28;;;;;;;;;;;15.90;34.00;;;;;;8341228;28;20061;-43
2022/12/13 05:07:29;;;;;;;;;;;16.00;34.00;;;;;;8358640;28;19956;-44
2022/12/13 05:11:29;;;;;;;;;;;15.90;34.10;;;;;;8358810;28;19970;-45
2022/12/13 05:15:30;;;;;;;;;;;16.00;34.10;;;;;;8362499;28;19921;-43
2022/12/13 05:19:30;;;;;;;;;;;16.00;34.10;;;;;;8360844;28;19916;-43
2022/12/13 05:23:31;;;;;;;;;;;16.00;34.00;;;;;;8362420;28;20027;-43
2022/12/13 05:27:31;;;;;;;;;;;16.00;33.80;;;;;;8362377;28;20332;-42
2022/12/13 05:31:32;;;;;;;;;;;16.00;33.80;;;;;;8361781;28;20015;-43
2022/12/13 05:35:32;;;;;;;;;;;15.90;33.70;;;;;;8362246;28;19929;-44
2022/12/13 05:39:33;;;;;;;;;;;15.90;33.70;;;;;;8362110;28;19912;-44
2022/12/13 05:43:33;;;;;;;;;;;15.90;33.80;;;;;;8361565;28;19925;-44
2022/12/13 05:47:33;;;;;;;;;;;15.90;33.80;;;;;;8363004;28;20285;-43
2022/12/13 05:51:34;;;;;;;;;;;15.80;34.00;;;;;;8367754;28;19916;-44
2022/12/13 05:55:35;;;;;;;;;;;15.80;34.00;;;;;;8367218;28;19967;-43
2022/12/13 05:59:36;;;;;;;;;;;15.80;34.00;;;;;;8367909;28;19917;-43
2022/12/13 06:03:37;;;;;;;;;;;15.80;34.10;;;;;;8367421;28;20408;-43
2022/12/13 06:07:38;;;;;;;;;;;15.70;34.10;;;;;;8367166;28;20345;-42
2022/12/13 06:11:38;;;;;;;;;;;15.80;34.10;;;;;;8367018;28;19927;-42
2022/12/13 06:15:38;;;;;;;;;;;15.80;34.10;;;;;;8367036;28;19920;-42
2022/12/13 06:19:39;;;;;;;;;;;15.80;34.10;;;;;;8366616;28;19960;-42
2022/12/13 06:23:39;;;;;;;;;;;15.90;34.10;;;;;;8366719;28;19923;-42
2022/12/13 06:27:40;;;;;;;;;;;15.90;34.00;;;;;;8367067;28;19923;-42
2022/12/13 06:31:40;;;;;;;;;;;15.90;34.00;;;;;;8366053;28;19924;-42
2022/12/13 06:35:41;;;;;;;;;;;15.90;33.90;;;;;;8366511;28;19947;-43
2022/12/13 06:39:41;;;;;;;;;;;16.00;33.90;;;;;;8366662;28;19959;-42
2022/12/13 06:43:43;;;;;;;;;;;16.00;33.90;;;;;;8365588;28;19919;-43
2022/12/13 06:47:43;;;;;;;;;;;16.00;33.90;;;;;;8366276;28;19992;-42
2022/12/13 06:51:45;;;;;;;;;;;16.00;33.80;;;;;;8365923;28;19917;-43
2022/12/13 06:55:45;;;;;;;;;;;16.00;33.80;;;;;;8365274;28;19927;-43
2022/12/13 06:59:46;;;;;;;;;;;16.00;33.70;;;;;;8365281;28;19917;-44
2022/12/13 07:03:46;;;;;;;;;;;16.00;33.60;;;;;;8365580;28;19996;-43
2022/12/13 07:07:47;;;;;;;;;;;15.90;33.50;;;;;;8365264;28;19913;-44
2022/12/13 07:11:47;;;;;;;;;;;15.90;33.50;;;;;;8365170;28;19925;-43
2022/12/13 07:15:48;;;;;;;;;;;15.90;33.90;;;;;;8364967;28;19944;-44
2022/12/13 07:19:49;;;;;;;;;;;15.80;33.80;;;;;;8364517;28;19917;-43
2022/12/13 07:23:49;;;;;;;;;;;15.80;33.90;;;;;;8365141;28;19913;-43
2022/12/13 07:27:54;;;;;;;;;;;15.80;34.00;;;;;;8364689;28;19917;-43
2022/12/13 07:31:55;;;;;;;;;;;15.80;33.90;;;;;;8364649;28;19917;-43
2022/12/13 07:35:58;;;;;;;;;;;15.70;33.90;;;;;;8364068;28;19916;-43
2022/12/13 07:39:59;;;;;;;;;;;15.80;34.00;;;;;;8363877;28;19917;-43
2022/12/13 07:43:59;;;;;;;;;;;15.80;34.00;;;;;;8364623;28;20062;-42
2022/12/13 07:48:04;;;;;;;;;;;15.80;33.90;;;;;;8363788;28;19916;-43
2022/12/13 07:52:08;;;;;;;;;;;15.90;33.90;;;;;;8363290;28;19974;-43
2022/12/13 07:56:10;;;;;;;;;;;15.90;33.80;;;;;;8364134;28;19917;-43
2022/12/13 08:00:11;;;;;;;;;;;15.90;33.80;;;;;;8363613;28;19917;-43
2022/12/13 08:04:11;;;;;;;;;;;15.90;33.80;;;;;;8362483;28;20097;-42
2022/12/13 08:08:11;;;;;;;;;;;16.00;33.80;;;;;;8363608;28;19917;-43
2022/12/13 08:12:12;;;;;;;;;;;16.00;33.70;;;;;;8362501;28;19974;-43
2022/12/13 08:16:16;;;;;;;;;;;16.00;33.70;;;;;;8362687;28;19921;-42
2022/12/13 08:20:18;;;;;;;;;;;16.00;33.80;;;;;;8363114;28;19922;-43
2022/12/13 08:24:19;;;;;;;;;;;16.00;33.80;;;;;;8363217;28;20369;-42
2022/12/13 08:28:19;;;;;;;;;;;16.00;33.70;;;;;;8362834;28;19924;-43
2022/12/13 08:32:20;;;;;;;;;;;16.00;33.70;;;;;;8363137;28;20348;-43
2022/12/13 08:36:23;;;;;;;;;;;16.00;33.70;;;;;;8362594;28;19912;-43
2022/12/13 08:40:23;;;;;;;;;;;16.00;33.70;;;;;;8362167;28;19917;-43
2022/12/13 08:44:23;;;;;;;;;;;16.00;33.50;;;;;;8362949;28;19967;-43
2022/12/13 08:48:24;;;;;;;;;;;16.00;33.50;;;;;;8362672;28;19917;-43
2022/12/13 08:52:24;;;;;;;;;;;15.90;33.50;;;;;;8362201;28;19956;-43
2022/12/13 08:56:25;;;;;;;;;;;15.90;33.60;;;;;;8362749;28;19983;-43
2022/12/13 09:00:25;;;;;;;;;;;15.90;33.60;;;;;;8362756;28;19920;-43
2022/12/13 09:04:26;;;;;;;;;;;15.90;33.80;;;;;;8362473;28;19976;-43
2022/12/13 09:08:26;;;;;;;;;;;15.90;33.70;;;;;;8362338;28;20378;-43
2022/12/13 09:12:26;;;;;;;;;;;15.90;33.80;;;;;;8362501;28;20338;-44
2022/12/13 09:16:29;;;;;;;;;;;15.80;33.90;;;;;;8361936;28;20003;-43
2022/12/13 09:20:29;;;;;;;;;;;15.80;33.80;;;;;;8362511;28;19913;-44
2022/12/13 09:24:30;;;;;;;;;;;15.90;33.90;;;;;;8368061;28;20436;-43
2022/12/13 09:28:31;;;;;;;;;;;15.80;33.80;;;;;;8368055;28;19917;-44
2022/12/13 09:32:31;;;;;;;;;;;15.90;33.80;;;;;;8368307;28;19944;-44
2022/12/13 09:36:31;;;;;;;;;;;15.90;33.90;;;;;;8368153;28;20335;-43
2022/12/13 09:40:33;;;;;;;;;;;15.90;34.00;;;;;;8367770;28;19920;-44
2022/12/13 09:44:34;;;;;;;;;;;15.90;34.00;;;;;;8368486;28;20001;-43
2022/12/13 09:48:35;;;;;;;;;;;15.90;33.90;;;;;;8368037;28;19921;-44
2022/12/13 09:52:38;;;;;;;;;;;15.90;33.90;;;;;;8367255;28;20008;-43
2022/12/13 09:56:38;;;;;;;;;;;15.90;33.80;;;;;;8367834;28;19917;-43
2022/12/13 10:00:39;;;;;;;;;;;15.90;34.30;;;;;;8367752;28;19917;-43
2022/12/13 10:04:40;;;;;;;;;;;15.90;33.80;;;;;;8367508;28;19913;-43
2022/12/13 10:08:43;;;;;;;;;;;15.90;33.80;;;;;;8367206;28;19917;-43
2022/12/13 10:12:46;;;;;;;;;;;16.00;33.80;;;;;;8366897;28;20323;-43
2022/12/13 10:16:51;;;;;;;;;;;15.90;33.80;;;;;;8366420;28;20003;-43
2022/12/13 10:20:52;;;;;;;;;;;15.90;33.80;;;;;;8366928;28;19959;-43
2022/12/13 10:24:55;;;;;;;;;;;15.90;33.80;;;;;;8366484;28;19913;-42
2022/12/13 10:29:03;;;;;;;;;;;15.90;33.80;;;;;;8366594;28;20335;-43
2022/12/13 10:33:04;;;;;;;;;;;16.00;34.30;;;;;;8365571;28;20026;-44
2022/12/13 10:37:23;;;;;;;;;;;16.00;33.80;;;;;;8365872;28;19921;-44
2022/12/13 10:41:24;;;;;;;;;;;16.00;33.90;;;;;;8366110;28;19924;-45
2022/12/13 10:45:24;;;;;;;;;;;16.00;33.90;;;;;;8366106;28;20269;-42
2022/12/13 10:49:27;;;;;;;;;;;16.00;33.90;;;;;;8365859;28;19917;-43
2022/12/13 10:53:33;;;;;;;;;;;16.00;33.80;;;;;;8366147;28;20024;-44
2022/12/13 10:57:33;;;;;;;;;;;16.00;33.80;;;;;;8365622;28;19921;-44
2022/12/13 11:01:34;;;;;;;;;;;16.00;33.90;;;;;;8365216;28;19943;-45
2022/12/13 11:05:35;;;;;;;;;;;16.00;33.90;;;;;;8365642;28;19936;-44
2022/12/13 11:09:35;;;;;;;;;;;16.00;33.90;;;;;;8364676;28;20226;-44
2022/12/13 11:13:39;;;;;;;;;;;16.00;33.80;;;;;;8364725;28;19925;-44
2022/12/13 11:17:45;;;;;;;;;;;16.00;33.90;;;;;;8365005;28;19924;-44
2022/12/13 11:21:47;;;;;;;;;;;16.00;33.90;;;;;;8365004;28;19917;-44
2022/12/13 11:25:53;;;;;;;;;;;16.00;33.90;;;;;;8364372;28;19916;-45
2022/12/13 11:29:56;;;;;;;;;;;16.00;33.90;;;;;;8365142;28;19919;-43
2022/12/13 11:34:03;;;;;;;;;;;16.00;33.80;;;;;;8364138;28;19925;-41
2022/12/13 11:38:22;;;;;;;;;;;16.00;33.80;;;;;;8364408;28;19917;-44
2022/12/13 11:42:31;;;;;;;;;;;16.00;33.90;;;;;;8364444;28;20296;-44
2022/12/13 11:46:43;;;;;;;;;;;16.00;33.90;;;;;;8363564;28;19924;-44
2022/12/13 11:50:46;;;;;;;;;;;16.00;33.90;;;;;;8364035;28;19917;-44
2022/12/13 11:54:52;;;;;;;;;;;16.10;34.00;;;;;;8364238;28;20011;-44
2022/12/13 11:59:06;;;;;;;;;;;16.10;33.90;;;;;;8363489;28;20289;-43
2022/12/13 12:03:15;;;;;;;;;;;16.00;33.90;;;;;;8363741;28;19921;-44
2022/12/13 12:07:18;;;;;;;;;;;16.10;34.00;;;;;;8363116;28;19917;-43
2022/12/13 12:11:21;;;;;;;;;;;16.10;33.90;;;;;;8363262;28;20066;-44
2022/12/13 12:15:28;;;;;;;;;;;16.10;33.90;;;;;;8362727;28;22395;-44
2022/12/13 12:19:33;;;;;;;;;;;16.10;33.90;;;;;;8363004;28;19921;-44
2022/12/13 12:23:41;;;;;;;;;;;16.10;33.90;;;;;;8363150;28;20400;-43
2022/12/13 12:27:56;;;;;;;;;;;16.10;33.90;;;;;;8363131;28;19920;-42
2022/12/13 12:32:29;;;;;;;;;;;16.10;34.00;;;;;;8362603;28;20433;-43
2022/12/13 12:36:40;;;;;;;;;;;16.10;34.00;;;;;;8340057;28;19966;-43
2022/12/13 12:40:49;;;;;;;;;;;16.10;34.10;;;;;;8362720;28;19944;-44
2022/12/13 12:44:50;;;;;;;;;;;16.10;34.10;;;;;;8362926;28;19917;-43
2022/12/13 12:54:11;;;;;;;;;;;16.10;34.70;;;;;;8355754;28;19997;-43
2022/12/13 12:58:17;;;;;;;;;;;16.10;34.30;;;;;;8325177;28;19935;-43
2022/12/13 13:02:18;;;;;;;;;;;16.10;34.30;;;;;;8325887;28;20353;-43
2022/12/13 13:06:22;;;;;;;;;;;16.10;34.30;;;;;;8325723;28;19914;-43
2022/12/13 13:10:22;;;;;;;;;;;16.10;34.20;;;;;;8325157;28;19960;-43
2022/12/13 13:14:28;;;;;;;;;;;16.10;34.30;;;;;;8325390;28;19924;-43
2022/12/13 13:18:49;;;;;;;;;;;16.10;34.20;;;;;;8325287;28;20014;-43
2022/12/13 13:22:51;;;;;;;;;;;16.10;34.20;;;;;;8324565;28;19961;-43
2022/12/13 13:26:53;;;;;;;;;;;16.10;34.30;;;;;;8324835;28;19924;-42
2022/12/13 13:31:01;;;;;;;;;;;16.10;34.30;;;;;;8324644;28;19928;-42
2022/12/13 13:35:20;;;;;;;;;;;16.20;34.30;;;;;;8324536;28;19917;-43
2022/12/13 13:39:27;;;;;;;;;;;16.20;34.30;;;;;;8324413;28;19993;-43
2022/12/13 13:43:28;;;;;;;;;;;16.10;34.20;;;;;;8324054;28;20282;-43
2022/12/13 13:47:38;;;;;;;;;;;16.10;34.30;;;;;;8324599;28;19975;-43
2022/12/13 13:51:45;;;;;;;;;;;16.20;34.30;;;;;;8338148;28;19929;-44
2022/12/13 13:55:51;;;;;;;;;;;16.10;34.30;;;;;;8356734;28;19960;-44
2022/12/13 14:00:06;;;;;;;;;;;16.20;34.40;;;;;;8356897;28;19924;-43
2022/12/13 14:04:26;;;;;;;;;;;16.20;34.30;;;;;;8341582;28;19935;-43
2022/12/13 14:08:35;;;;;;;;;;;16.20;34.30;;;;;;8323208;28;19921;-43
2022/12/13 14:12:45;;;;;;;;;;;16.20;34.30;;;;;;8309704;28;19983;-44
2022/12/13 14:17:04;;;;;;;;;;;16.20;34.30;;;;;;8333725;28;19952;-43
2022/12/13 14:21:05;;;;;;;;;;;16.20;34.30;;;;;;8334771;28;20293;-44
2022/12/13 14:25:22;;;;;;;;;;;16.20;34.30;;;;;;8333552;28;20004;-44
2022/12/13 14:29:33;;;;;;;;;;;16.20;34.20;;;;;;8334170;28;20031;-44
2022/12/13 14:33:33;;;;;;;;;;;16.20;34.30;;;;;;8334212;28;19967;-44
2022/12/13 14:37:36;;;;;;;;;;;16.20;34.30;;;;;;8333179;28;19921;-44
2022/12/13 14:41:46;;;;;;;;;;;16.20;34.20;;;;;;8333687;28;19913;-45
2022/12/13 14:45:51;;;;;;;;;;;16.20;34.30;;;;;;8333518;28;19921;-44
2022/12/13 14:49:59;;;;;;;;;;;16.20;34.30;;;;;;8333038;28;20349;-45
2022/12/13 14:54:01;;;;;;;;;;;16.20;34.40;;;;;;8333159;28;20290;-43
2022/12/13 14:58:03;;;;;;;;;;;16.20;34.40;;;;;;8332648;28;19997;-44
2022/12/13 15:02:03;;;;;;;;;;;16.20;34.40;;;;;;8333017;28;20367;-45
2022/12/13 15:06:04;;;;;;;;;;;16.20;34.40;;;;;;8333386;28;19941;-44
2022/12/13 15:10:05;;;;;;;;;;;16.20;34.30;;;;;;8332583;28;19921;-44
2022/12/13 15:14:05;;;;;;;;;;;16.20;34.30;;;;;;8331786;28;19917;-43
2022/12/13 15:18:08;;;;;;;;;;;16.20;34.30;;;;;;8332544;28;19924;-44
2022/12/13 15:22:13;;;;;;;;;;;16.20;34.30;;;;;;8331817;28;19948;-44
2022/12/13 15:26:18;;;;;;;;;;;16.20;34.30;;;;;;8332263;28;19913;-44
2022/12/13 15:30:19;;;;;;;;;;;16.20;34.30;;;;;;8331989;28;19917;-45
2022/12/13 15:34:26;;;;;;;;;;;16.20;34.30;;;;;;8331457;28;19917;-44
2022/12/13 15:38:26;;;;;;;;;;;16.20;34.30;;;;;;8331814;28;20366;-45
2022/12/13 15:42:32;;;;;;;;;;;16.20;34.30;;;;;;8331895;28;19920;-44
2022/12/13 15:46:36;;;;;;;;;;;16.20;34.30;;;;;;8331464;28;19967;-44
2022/12/13 15:50:38;;;;;;;;;;;16.20;34.30;;;;;;8331465;28;19925;-44
2022/12/13 15:54:39;;;;;;;;;;;16.20;34.30;;;;;;8331179;28;19917;-45
2022/12/13 15:58:39;;;;;;;;;;;16.20;34.30;;;;;;8330922;28;20304;-44
2022/12/13 16:03:01;;;;;;;;;;;16.20;34.30;;;;;;8330861;28;19925;-44
2022/12/13 16:07:02;;;;;;;;;;;16.20;34.30;;;;;;8330798;28;19917;-45
2022/12/13 16:11:03;;;;;;;;;;;16.20;34.30;;;;;;8330630;28;19932;-44
2022/12/13 16:15:23;;;;;;;;;;;16.20;34.20;;;;;;8330752;28;20046;-44
2022/12/13 16:19:24;;;;;;;;;;;16.20;34.20;;;;;;8330373;28;19917;-44
2022/12/13 16:23:24;;;;;;;;;;;16.20;34.20;;;;;;8330518;28;19918;-46
2022/12/13 16:27:25;;;;;;;;;;;16.30;34.20;;;;;;8330246;28;19914;-43
2022/12/13 16:31:34;;;;;;;;;;;16.30;34.20;;;;;;8330015;28;19932;-43
2022/12/13 16:35:34;;;;;;;;;;;16.20;34.20;;;;;;8330624;28;19924;-43
2022/12/13 16:39:35;;;;;;;;;;;16.20;34.20;;;;;;8330263;28;19961;-43
2022/12/13 16:43:44;;;;;;;;;;;16.30;34.30;;;;;;8329730;28;19921;-44
2022/12/13 16:47:46;;;;;;;;;;;16.30;34.20;;;;;;8330058;28;20000;-43
2022/12/13 16:51:46;;;;;;;;;;;16.30;34.20;;;;;;8330645;28;20278;-43
2022/12/13 16:55:47;;;;;;;;;;;16.20;34.20;;;;;;8329957;28;19917;-44
2022/12/13 16:59:47;;;;;;;;;;;16.30;34.30;;;;;;8330243;28;20332;-44
2022/12/13 17:03:48;;;;;;;;;;;16.20;34.30;;;;;;8329926;28;20007;-44
2022/12/13 17:07:48;;;;;;;;;;;16.20;34.30;;;;;;8329262;28;19996;-43
2022/12/13 17:11:49;;;;;;;;;;;16.30;34.30;;;;;;8328498;28;19933;-44
2022/12/13 17:15:49;;;;;;;;;;;16.30;34.30;;;;;;8329405;28;19967;-43
2022/12/13 17:19:50;;;;;;;;;;;16.30;34.30;;;;;;8329748;28;19921;-43
2022/12/13 17:23:54;;;;;;;;;;;16.20;34.30;;;;;;8329468;28;19991;-44
2022/12/13 17:27:55;;;;;;;;;;;16.30;34.20;;;;;;8329382;28;19914;-43
2022/12/13 17:31:56;;;;;;;;;;;16.30;34.30;;;;;;8329683;28;19925;-43
2022/12/13 17:35:56;;;;;;;;;;;16.30;34.20;;;;;;8329294;28;19917;-43
2022/12/13 17:39:56;;;;;;;;;;;16.30;34.30;;;;;;8333494;28;19979;-43
2022/12/13 17:43:58;;;;;;;;;;;16.30;34.30;;;;;;8335409;28;20346;-44
2022/12/13 17:47:59;;;;;;;;;;;16.30;34.30;;;;;;8335542;28;19913;-43
2022/12/13 17:51:59;;;;;;;;;;;16.30;34.30;;;;;;8334952;28;19929;-42
2022/12/13 17:56:01;;;;;;;;;;;16.30;34.20;;;;;;8334149;28;19921;-44
2022/12/13 18:00:02;;;;;;;;;;;16.30;34.30;;;;;;8335069;28;20259;-45
2022/12/13 18:04:03;;;;;;;;;;;16.30;34.30;;;;;;8334436;28;19971;-44
2022/12/13 18:08:03;;;;;;;;;;;16.30;34.30;;;;;;8335254;28;19975;-44
2022/12/13 18:12:04;;;;;;;;;;;16.30;34.20;;;;;;8334449;28;19932;-44
2022/12/13 18:16:05;;;;;;;;;;;16.30;34.20;;;;;;8334085;28;20356;-44
2022/12/13 18:20:06;;;;;;;;;;;16.30;34.20;;;;;;8334661;28;19924;-44
2022/12/13 18:24:07;;;;;;;;;;;16.40;34.30;;;;;;8334380;28;20351;-44
2022/12/13 18:28:08;;;;;;;;;;;16.30;34.30;;;;;;8333701;28;19914;-44
2022/12/13 18:32:08;;;;;;;;;;;16.30;34.30;;;;;;8333811;28;20294;-44
2022/12/13 18:36:09;;;;;;;;;;;16.30;34.30;;;;;;8333903;28;19960;-45
2022/12/13 18:40:10;;;;;;;;;;;16.30;34.30;;;;;;8333243;28;20100;-44
2022/12/13 18:44:12;;;;;;;;;;;16.30;34.30;;;;;;8333536;28;19917;-45
2022/12/13 18:48:13;;;;;;;;;;;16.30;34.30;;;;;;8333553;28;19944;-45
2022/12/13 18:52:13;;;;;;;;;;;16.40;34.30;;;;;;8333207;28;19925;-44
2022/12/13 18:56:14;;;;;;;;;;;16.30;34.30;;;;;;8333219;28;20007;-44
2022/12/13 19:00:15;;;;;;;;;;;16.40;34.40;;;;;;8333371;28;19913;-44
2022/12/13 19:04:16;;;;;;;;;;;16.30;34.40;;;;;;8332667;28;19924;-44
2022/12/13 19:08:16;;;;;;;;;;;16.30;34.40;;;;;;8333371;28;20275;-44
2022/12/13 19:12:17;;;;;;;;;;;16.30;34.30;;;;;;8332513;28;19925;-43
2022/12/13 19:16:19;;;;;;;;;;;16.40;34.40;;;;;;8332157;28;20281;-43
2022/12/13 19:20:19;;;;;;;;;;;16.30;34.30;;;;;;8332847;28;19948;-45
2022/12/13 19:24:20;;;;;;;;;;;16.30;34.30;;;;;;8332696;28;19918;-44
2022/12/13 19:28:20;;;;;;;;;;;16.30;34.30;;;;;;8332217;28;19921;-44
2022/12/13 19:32:20;;;;;;;;;;;16.30;34.30;;;;;;8331874;28;19932;-45
2022/12/13 19:36:21;;;;;;;;;;;16.30;34.40;;;;;;8332085;28;20278;-44
2022/12/13 19:40:22;;;;;;;;;;;16.30;34.40;;;;;;8331433;28;20311;-44
2022/12/13 19:44:22;;;;;;;;;;;16.30;34.40;;;;;;8331741;28;19913;-44
2022/12/13 19:48:23;;;;;;;;;;;16.30;34.40;;;;;;8332013;28;19918;-44
2022/12/13 19:52:23;;;;;;;;;;;16.30;34.40;;;;;;8331172;28;19955;-44
2022/12/13 19:56:24;;;;;;;;;;;16.30;34.40;;;;;;8331343;28;19940;-45
2022/12/13 20:00:24;;;;;;;;;;;16.30;34.40;;;;;;8330767;28;20410;-44
2022/12/13 20:04:25;;;;;;;;;;;16.30;34.40;;;;;;8330817;28;20293;-44
2022/12/13 20:08:25;;;;;;;;;;;16.30;34.50;;;;;;8330355;28;19921;-44
2022/12/13 20:12:28;;;;;;;;;;;16.30;34.50;;;;;;8330922;28;19925;-45
2022/12/13 20:16:28;;;;;;;;;;;16.30;34.40;;;;;;8330485;28;20290;-42
2022/12/13 20:20:29;;;;;;;;;;;16.30;34.50;;;;;;8330798;28;19913;-43
2022/12/13 20:24:29;;;;;;;;;;;16.30;34.40;;;;;;8330778;28;20054;-43
2022/12/13 20:28:30;;;;;;;;;;;16.30;34.50;;;;;;8330357;28;20016;-43
2022/12/13 20:32:30;;;;;;;;;;;16.30;34.50;;;;;;8330344;28;19978;-43
2022/12/13 20:36:31;;;;;;;;;;;16.30;34.50;;;;;;8330555;28;19959;-43
2022/12/13 20:40:32;;;;;;;;;;;16.30;34.50;;;;;;8329851;28;19924;-44
2022/12/13 20:44:33;;;;;;;;;;;16.30;34.50;;;;;;8330595;28;20461;-44
2022/12/13 20:48:37;;;;;;;;;;;16.30;34.50;;;;;;8330252;28;19921;-43
2022/12/13 20:52:37;;;;;;;;;;;16.30;34.50;;;;;;8329799;28;19925;-42
2022/12/13 20:56:38;;;;;;;;;;;16.30;34.50;;;;;;8330108;28;20340;-43
2022/12/13 21:00:39;;;;;;;;;;;16.30;34.50;;;;;;8330204;28;19920;-43
2022/12/13 21:04:39;;;;;;;;;;;16.30;34.50;;;;;;8329438;28;19983;-43
2022/12/13 21:08:53;;;;;;;;;;;16.30;34.50;;;;;;8330122;28;19921;-42
2022/12/13 21:12:53;;;;;;;;;;;16.30;34.50;;;;;;8330883;28;19925;-41
2022/12/13 21:16:55;;;;;;;;;;;16.30;34.40;;;;;;8336358;28;19994;-43
2022/12/13 21:20:56;;;;;;;;;;;16.30;34.40;;;;;;8336392;28;20230;-43
2022/12/13 21:24:56;;;;;;;;;;;16.30;34.40;;;;;;8335404;28;19964;-43
2022/12/13 21:28:58;;;;;;;;;;;16.30;34.40;;;;;;8336251;28;19913;-42
2022/12/13 21:32:58;;;;;;;;;;;16.30;34.30;;;;;;8335900;28;19960;-43
2022/12/13 21:36:58;;;;;;;;;;;16.30;34.40;;;;;;8335322;28;19924;-43
2022/12/13 21:40:59;;;;;;;;;;;16.30;34.40;;;;;;8335642;28;19925;-43
2022/12/13 21:44:59;;;;;;;;;;;16.30;34.40;;;;;;8335786;28;19917;-44
2022/12/13 21:49:00;;;;;;;;;;;16.30;34.50;;;;;;8335249;28;19921;-43
2022/12/13 21:53:00;;;;;;;;;;;16.30;34.50;;;;;;8335441;28;20331;-44
2022/12/13 22:01:20;;;;;;;;;;;16.30;34.60;;;;;;8334617;28;19924;-42
2022/12/13 22:05:21;;;;;;;;;;;16.20;34.60;;;;;;8335172;28;20283;-44
2022/12/13 22:09:21;;;;;;;;;;;16.20;35.10;;;;;;8334936;28;20355;-43
2022/12/13 22:13:22;;;;;;;;;;;16.20;34.60;;;;;;8334273;28;19925;-44
2022/12/13 22:17:23;;;;;;;;;;;16.20;34.60;;;;;;8334415;28;19940;-44
2022/12/13 22:21:23;;;;;;;;;;;16.20;34.60;;;;;;8334591;28;20442;-45
2022/12/13 22:25:24;;;;;;;;;;;16.20;34.60;;;;;;8333475;28;20032;-44
2022/12/13 22:29:25;;;;;;;;;;;16.20;34.60;;;;;;8334883;28;20354;-44
2022/12/13 22:33:25;;;;;;;;;;;16.20;34.60;;;;;;8334186;28;19960;-44
2022/12/13 22:37:26;;;;;;;;;;;16.20;34.60;;;;;;8333512;28;20006;-44
2022/12/13 22:41:26;;;;;;;;;;;16.20;34.60;;;;;;8334042;28;19917;-45
2022/12/13 22:45:27;;;;;;;;;;;16.20;34.60;;;;;;8333856;28;19924;-44
2022/12/13 22:49:27;;;;;;;;;;;16.20;34.60;;;;;;8333638;28;19920;-43
2022/12/13 22:53:28;;;;;;;;;;;16.20;34.60;;;;;;8333699;28;19926;-43
2022/12/13 22:57:28;;;;;;;;;;;16.20;34.60;;;;;;8333494;28;19919;-44
2022/12/13 23:01:33;;;;;;;;;;;16.20;34.60;;;;;;8331956;28;19918;-43
2022/12/13 23:05:34;;;;;;;;;;;16.20;34.60;;;;;;8321563;28;20439;-43
2022/12/13 23:09:35;;;;;;;;;;;16.20;34.60;;;;;;8333207;28;19921;-43
2022/12/13 23:13:35;;;;;;;;;;;16.20;34.60;;;;;;8332256;28;19936;-43
2022/12/13 23:17:35;;;;;;;;;;;16.20;34.60;;;;;;8332678;28;19963;-43
2022/12/13 23:21:36;;;;;;;;;;;16.20;34.60;;;;;;8332557;28;19913;-44
2022/12/13 23:25:37;;;;;;;;;;;16.20;34.60;;;;;;8331993;28;19917;-43
2022/12/13 23:29:38;;;;;;;;;;;16.20;34.60;;;;;;8332754;28;19924;-43
2022/12/13 23:33:39;;;;;;;;;;;16.20;35.20;;;;;;8332035;28;19929;-43
2022/12/13 23:37:40;;;;;;;;;;;16.20;34.60;;;;;;8330785;28;20311;-44
2022/12/13 23:41:40;;;;;;;;;;;16.20;34.70;;;;;;8331911;28;19924;-44
2022/12/13 23:45:40;;;;;;;;;;;16.20;34.60;;;;;;8331910;28;19971;-43